sensor_id;sensor_type;location;lat;lon;timestamp;P1;durP1;ratioP1;P2;durP2;ratioP2
25854;SDS011;13680;49.936;11.344;2024-03-02T00:02:06;47.35;;;22.08;;
25854;SDS011;13680;49.936;11.344;2024-03-02T00:04:32;45.25;;;21.95;;
25854;SDS011;13680;49.936;11.344;2024-03-02T00:06:59;48.67;;;23.25;;
25854;SDS011;13680;49.936;11.344;2024-03-02T00:09:24;52.63;;;23.35;;
25854;SDS011;13680;49.936;11.344;2024-03-02T00:11:49;48.60;;;23.10;;
25854;SDS011;13680;49.936;11.344;2024-03-02T00:14:16;48.20;;;22.48;;
25854;SDS011;13680;49.936;11.344;2024-03-02T00:16:41;47.55;;;23.17;;
25854;SDS011;13680;49.936;11.344;2024-03-02T00:19:07;47.28;;;22.05;;
25854;SDS011;13680;49.936;11.344;2024-03-02T00:21:34;47.13;;;21.50;;
25854;SDS011;13680;49.936;11.344;2024-03-02T00:23:59;43.72;;;20.90;;
25854;SDS011;13680;49.936;11.344;2024-03-02T00:26:25;42.75;;;21.08;;
25854;SDS011;13680;49.936;11.344;2024-03-02T00:28:52;42.35;;;21.08;;
25854;SDS011;13680;49.936;11.344;2024-03-02T00:31:20;48.50;;;22.08;;
25854;SDS011;13680;49.936;11.344;2024-03-02T00:33:48;47.03;;;21.10;;
25854;SDS011;13680;49.936;11.344;2024-03-02T00:36:26;46.83;;;21.95;;
25854;SDS011;13680;49.936;11.344;2024-03-02T00:38:54;43.00;;;21.05;;
25854;SDS011;13680;49.936;11.344;2024-03-02T00:41:23;39.97;;;20.17;;
25854;SDS011;13680;49.936;11.344;2024-03-02T00:46:24;47.10;;;21.80;;
25854;SDS011;13680;49.936;11.344;2024-03-02T00:51:19;48.67;;;21.98;;
25854;SDS011;13680;49.936;11.344;2024-03-02T00:53:46;48.35;;;21.80;;
25854;SDS011;13680;49.936;11.344;2024-03-02T00:56:12;41.67;;;21.65;;
25854;SDS011;13680;49.936;11.344;2024-03-02T00:58:38;49.38;;;22.75;;
25854;SDS011;13680;49.936;11.344;2024-03-02T01:01:04;45.83;;;22.63;;
25854;SDS011;13680;49.936;11.344;2024-03-02T01:03:30;50.42;;;23.02;;
25854;SDS011;13680;49.936;11.344;2024-03-02T01:05:57;50.13;;;22.65;;
25854;SDS011;13680;49.936;11.344;2024-03-02T01:08:23;47.92;;;23.27;;
25854;SDS011;13680;49.936;11.344;2024-03-02T01:10:49;41.85;;;21.70;;
25854;SDS011;13680;49.936;11.344;2024-03-02T01:13:14;47.10;;;23.08;;
25854;SDS011;13680;49.936;11.344;2024-03-02T01:15:39;51.50;;;23.38;;
25854;SDS011;13680;49.936;11.344;2024-03-02T01:18:05;45.65;;;22.02;;
25854;SDS011;13680;49.936;11.344;2024-03-02T01:20:30;45.47;;;21.85;;
25854;SDS011;13680;49.936;11.344;2024-03-02T01:22:55;45.03;;;22.77;;
25854;SDS011;13680;49.936;11.344;2024-03-02T01:25:21;50.22;;;22.52;;
25854;SDS011;13680;49.936;11.344;2024-03-02T01:27:46;42.78;;;21.10;;
25854;SDS011;13680;49.936;11.344;2024-03-02T01:30:11;49.92;;;21.55;;
25854;SDS011;13680;49.936;11.344;2024-03-02T01:32:39;51.42;;;22.13;;
25854;SDS011;13680;49.936;11.344;2024-03-02T01:35:05;40.45;;;20.92;;
25854;SDS011;13680;49.936;11.344;2024-03-02T01:37:32;46.25;;;22.25;;
25854;SDS011;13680;49.936;11.344;2024-03-02T01:39:57;45.53;;;21.70;;
25854;SDS011;13680;49.936;11.344;2024-03-02T01:42:23;49.83;;;22.17;;
25854;SDS011;13680;49.936;11.344;2024-03-02T01:44:49;54.60;;;23.50;;
25854;SDS011;13680;49.936;11.344;2024-03-02T01:47:14;46.20;;;21.55;;
25854;SDS011;13680;49.936;11.344;2024-03-02T01:49:39;48.72;;;23.00;;
25854;SDS011;13680;49.936;11.344;2024-03-02T01:52:06;50.95;;;24.55;;
25854;SDS011;13680;49.936;11.344;2024-03-02T01:54:32;51.53;;;23.45;;
25854;SDS011;13680;49.936;11.344;2024-03-02T01:56:57;50.45;;;23.25;;
25854;SDS011;13680;49.936;11.344;2024-03-02T01:59:23;46.40;;;22.73;;
25854;SDS011;13680;49.936;11.344;2024-03-02T02:01:48;48.05;;;23.92;;
25854;SDS011;13680;49.936;11.344;2024-03-02T02:04:13;48.25;;;23.02;;
25854;SDS011;13680;49.936;11.344;2024-03-02T02:06:39;51.15;;;22.80;;
25854;SDS011;13680;49.936;11.344;2024-03-02T02:09:04;47.03;;;23.98;;
25854;SDS011;13680;49.936;11.344;2024-03-02T02:11:33;46.42;;;22.40;;
25854;SDS011;13680;49.936;11.344;2024-03-02T02:13:58;51.13;;;23.70;;
25854;SDS011;13680;49.936;11.344;2024-03-02T02:16:24;48.70;;;23.58;;
25854;SDS011;13680;49.936;11.344;2024-03-02T02:18:49;47.47;;;23.45;;
25854;SDS011;13680;49.936;11.344;2024-03-02T02:21:14;50.17;;;23.17;;
25854;SDS011;13680;49.936;11.344;2024-03-02T02:23:39;46.65;;;24.90;;
25854;SDS011;13680;49.936;11.344;2024-03-02T02:26:05;49.50;;;23.55;;
25854;SDS011;13680;49.936;11.344;2024-03-02T02:28:30;52.10;;;23.23;;
25854;SDS011;13680;49.936;11.344;2024-03-02T02:30:55;49.35;;;22.70;;
25854;SDS011;13680;49.936;11.344;2024-03-02T02:33:25;45.78;;;22.50;;
25854;SDS011;13680;49.936;11.344;2024-03-02T02:35:50;43.30;;;22.02;;
25854;SDS011;13680;49.936;11.344;2024-03-02T02:38:16;48.85;;;22.90;;
25854;SDS011;13680;49.936;11.344;2024-03-02T02:40:41;44.88;;;21.92;;
25854;SDS011;13680;49.936;11.344;2024-03-02T02:43:06;49.03;;;22.58;;
25854;SDS011;13680;49.936;11.344;2024-03-02T02:45:32;52.60;;;24.60;;
25854;SDS011;13680;49.936;11.344;2024-03-02T02:47:57;52.47;;;23.95;;
25854;SDS011;13680;49.936;11.344;2024-03-02T02:50:22;50.00;;;23.88;;
25854;SDS011;13680;49.936;11.344;2024-03-02T02:52:48;52.45;;;24.52;;
25854;SDS011;13680;49.936;11.344;2024-03-02T02:55:13;46.08;;;22.83;;
25854;SDS011;13680;49.936;11.344;2024-03-02T02:57:40;47.72;;;22.60;;
25854;SDS011;13680;49.936;11.344;2024-03-02T03:00:11;51.15;;;24.23;;
25854;SDS011;13680;49.936;11.344;2024-03-02T03:02:50;49.25;;;24.60;;
25854;SDS011;13680;49.936;11.344;2024-03-02T03:05:15;51.60;;;23.85;;
25854;SDS011;13680;49.936;11.344;2024-03-02T03:07:41;48.05;;;23.00;;
25854;SDS011;13680;49.936;11.344;2024-03-02T03:10:07;52.83;;;24.85;;
25854;SDS011;13680;49.936;11.344;2024-03-02T03:12:33;50.83;;;23.48;;
25854;SDS011;13680;49.936;11.344;2024-03-02T03:14:59;50.22;;;23.75;;
25854;SDS011;13680;49.936;11.344;2024-03-02T03:17:25;46.10;;;21.30;;
25854;SDS011;13680;49.936;11.344;2024-03-02T03:19:50;44.03;;;21.73;;
25854;SDS011;13680;49.936;11.344;2024-03-02T03:22:16;51.42;;;23.95;;
25854;SDS011;13680;49.936;11.344;2024-03-02T03:24:42;48.22;;;22.67;;
25854;SDS011;13680;49.936;11.344;2024-03-02T03:27:08;47.85;;;22.50;;
25854;SDS011;13680;49.936;11.344;2024-03-02T03:29:35;48.63;;;24.02;;
25854;SDS011;13680;49.936;11.344;2024-03-02T03:32:01;48.67;;;23.98;;
25854;SDS011;13680;49.936;11.344;2024-03-02T03:34:27;48.13;;;23.38;;
25854;SDS011;13680;49.936;11.344;2024-03-02T03:36:54;48.05;;;23.95;;
25854;SDS011;13680;49.936;11.344;2024-03-02T03:39:20;49.35;;;23.38;;
25854;SDS011;13680;49.936;11.344;2024-03-02T03:41:46;56.30;;;25.98;;
25854;SDS011;13680;49.936;11.344;2024-03-02T03:44:11;52.78;;;24.63;;
25854;SDS011;13680;49.936;11.344;2024-03-02T03:46:37;46.92;;;23.77;;
25854;SDS011;13680;49.936;11.344;2024-03-02T03:49:02;50.15;;;23.92;;
25854;SDS011;13680;49.936;11.344;2024-03-02T03:51:29;47.33;;;22.50;;
25854;SDS011;13680;49.936;11.344;2024-03-02T03:53:54;48.63;;;23.13;;
25854;SDS011;13680;49.936;11.344;2024-03-02T03:56:19;50.45;;;24.40;;
25854;SDS011;13680;49.936;11.344;2024-03-02T03:58:44;44.97;;;23.25;;
25854;SDS011;13680;49.936;11.344;2024-03-02T04:01:10;48.33;;;22.23;;
25854;SDS011;13680;49.936;11.344;2024-03-02T04:03:35;46.25;;;22.75;;
25854;SDS011;13680;49.936;11.344;2024-03-02T04:06:01;45.00;;;23.38;;
25854;SDS011;13680;49.936;11.344;2024-03-02T04:08:26;45.75;;;23.25;;
25854;SDS011;13680;49.936;11.344;2024-03-02T04:10:51;46.67;;;23.67;;
25854;SDS011;13680;49.936;11.344;2024-03-02T04:13:17;47.97;;;23.92;;
25854;SDS011;13680;49.936;11.344;2024-03-02T04:15:42;47.50;;;22.50;;
25854;SDS011;13680;49.936;11.344;2024-03-02T04:18:07;52.70;;;25.65;;
25854;SDS011;13680;49.936;11.344;2024-03-02T04:20:32;50.78;;;23.05;;
25854;SDS011;13680;49.936;11.344;2024-03-02T04:22:58;43.65;;;22.65;;
25854;SDS011;13680;49.936;11.344;2024-03-02T04:25:23;45.78;;;22.90;;
25854;SDS011;13680;49.936;11.344;2024-03-02T04:27:48;45.92;;;21.98;;
25854;SDS011;13680;49.936;11.344;2024-03-02T04:30:14;44.33;;;22.73;;
25854;SDS011;13680;49.936;11.344;2024-03-02T04:32:39;47.40;;;22.77;;
25854;SDS011;13680;49.936;11.344;2024-03-02T04:35:04;44.67;;;22.80;;
25854;SDS011;13680;49.936;11.344;2024-03-02T04:37:34;43.72;;;23.10;;
25854;SDS011;13680;49.936;11.344;2024-03-02T04:39:59;47.30;;;23.08;;
25854;SDS011;13680;49.936;11.344;2024-03-02T04:42:25;46.97;;;23.17;;
25854;SDS011;13680;49.936;11.344;2024-03-02T04:44:50;49.08;;;22.42;;
25854;SDS011;13680;49.936;11.344;2024-03-02T04:47:15;52.75;;;23.17;;
25854;SDS011;13680;49.936;11.344;2024-03-02T04:49:41;50.10;;;23.83;;
25854;SDS011;13680;49.936;11.344;2024-03-02T04:52:06;52.63;;;24.73;;
25854;SDS011;13680;49.936;11.344;2024-03-02T04:54:31;52.53;;;24.02;;
25854;SDS011;13680;49.936;11.344;2024-03-02T04:56:57;51.72;;;23.30;;
25854;SDS011;13680;49.936;11.344;2024-03-02T04:59:23;48.83;;;23.20;;
25854;SDS011;13680;49.936;11.344;2024-03-02T05:01:48;49.40;;;22.45;;
25854;SDS011;13680;49.936;11.344;2024-03-02T05:04:14;55.58;;;26.27;;
25854;SDS011;13680;49.936;11.344;2024-03-02T05:06:40;59.28;;;25.83;;
25854;SDS011;13680;49.936;11.344;2024-03-02T05:09:06;59.47;;;28.63;;
25854;SDS011;13680;49.936;11.344;2024-03-02T05:11:32;58.13;;;25.75;;
25854;SDS011;13680;49.936;11.344;2024-03-02T05:14:04;65.20;;;26.90;;
25854;SDS011;13680;49.936;11.344;2024-03-02T05:16:32;56.50;;;27.98;;
25854;SDS011;13680;49.936;11.344;2024-03-02T05:18:59;60.90;;;28.20;;
25854;SDS011;13680;49.936;11.344;2024-03-02T05:21:24;58.72;;;27.80;;
25854;SDS011;13680;49.936;11.344;2024-03-02T05:23:49;56.97;;;26.58;;
25854;SDS011;13680;49.936;11.344;2024-03-02T05:26:15;57.05;;;25.45;;
25854;SDS011;13680;49.936;11.344;2024-03-02T05:28:40;67.82;;;30.77;;
25854;SDS011;13680;49.936;11.344;2024-03-02T05:31:06;59.88;;;26.33;;
25854;SDS011;13680;49.936;11.344;2024-03-02T05:33:31;55.13;;;25.10;;
25854;SDS011;13680;49.936;11.344;2024-03-02T05:35:58;57.30;;;25.73;;
25854;SDS011;13680;49.936;11.344;2024-03-02T05:38:23;62.97;;;27.98;;
25854;SDS011;13680;49.936;11.344;2024-03-02T05:40:49;63.28;;;28.45;;
25854;SDS011;13680;49.936;11.344;2024-03-02T05:43:15;61.75;;;28.67;;
25854;SDS011;13680;49.936;11.344;2024-03-02T05:45:40;51.80;;;25.17;;
25854;SDS011;13680;49.936;11.344;2024-03-02T05:48:06;53.35;;;25.05;;
25854;SDS011;13680;49.936;11.344;2024-03-02T05:50:32;51.88;;;23.80;;
25854;SDS011;13680;49.936;11.344;2024-03-02T05:52:58;52.05;;;23.95;;
25854;SDS011;13680;49.936;11.344;2024-03-02T05:55:24;48.28;;;24.25;;
25854;SDS011;13680;49.936;11.344;2024-03-02T05:57:49;46.95;;;21.65;;
25854;SDS011;13680;49.936;11.344;2024-03-02T06:00:35;48.30;;;23.05;;
25854;SDS011;13680;49.936;11.344;2024-03-02T06:03:00;50.47;;;21.52;;
25854;SDS011;13680;49.936;11.344;2024-03-02T06:05:25;50.47;;;22.40;;
25854;SDS011;13680;49.936;11.344;2024-03-02T06:07:51;46.38;;;21.58;;
25854;SDS011;13680;49.936;11.344;2024-03-02T06:10:16;48.35;;;21.55;;
25854;SDS011;13680;49.936;11.344;2024-03-02T06:12:42;38.92;;;19.92;;
25854;SDS011;13680;49.936;11.344;2024-03-02T06:15:08;41.50;;;19.80;;
25854;SDS011;13680;49.936;11.344;2024-03-02T06:17:37;49.10;;;22.58;;
25854;SDS011;13680;49.936;11.344;2024-03-02T06:20:02;50.42;;;23.25;;
25854;SDS011;13680;49.936;11.344;2024-03-02T06:22:28;51.42;;;23.90;;
25854;SDS011;13680;49.936;11.344;2024-03-02T06:24:53;51.88;;;23.85;;
25854;SDS011;13680;49.936;11.344;2024-03-02T06:27:19;46.92;;;20.25;;
25854;SDS011;13680;49.936;11.344;2024-03-02T06:29:44;44.63;;;18.90;;
25854;SDS011;13680;49.936;11.344;2024-03-02T06:32:10;45.88;;;20.55;;
25854;SDS011;13680;49.936;11.344;2024-03-02T06:34:35;41.25;;;20.05;;
25854;SDS011;13680;49.936;11.344;2024-03-02T06:37:00;39.55;;;19.52;;
25854;SDS011;13680;49.936;11.344;2024-03-02T06:39:26;42.38;;;20.05;;
25854;SDS011;13680;49.936;11.344;2024-03-02T06:41:52;40.22;;;19.65;;
25854;SDS011;13680;49.936;11.344;2024-03-02T06:44:17;41.88;;;19.77;;
25854;SDS011;13680;49.936;11.344;2024-03-02T06:46:42;47.50;;;22.33;;
25854;SDS011;13680;49.936;11.344;2024-03-02T06:49:08;44.30;;;21.77;;
25854;SDS011;13680;49.936;11.344;2024-03-02T06:51:35;41.65;;;20.77;;
25854;SDS011;13680;49.936;11.344;2024-03-02T06:54:00;45.30;;;21.67;;
25854;SDS011;13680;49.936;11.344;2024-03-02T06:56:26;49.80;;;22.67;;
25854;SDS011;13680;49.936;11.344;2024-03-02T06:58:51;43.72;;;20.15;;
25854;SDS011;13680;49.936;11.344;2024-03-02T07:01:17;46.67;;;22.05;;
25854;SDS011;13680;49.936;11.344;2024-03-02T07:03:42;43.95;;;22.60;;
25854;SDS011;13680;49.936;11.344;2024-03-02T07:06:09;46.72;;;22.40;;
25854;SDS011;13680;49.936;11.344;2024-03-02T07:08:34;48.58;;;21.42;;
25854;SDS011;13680;49.936;11.344;2024-03-02T07:11:00;48.92;;;22.80;;
25854;SDS011;13680;49.936;11.344;2024-03-02T07:13:25;45.78;;;21.45;;
25854;SDS011;13680;49.936;11.344;2024-03-02T07:15:51;45.67;;;21.13;;
25854;SDS011;13680;49.936;11.344;2024-03-02T07:18:25;45.95;;;20.52;;
25854;SDS011;13680;49.936;11.344;2024-03-02T07:20:50;45.92;;;20.80;;
25854;SDS011;13680;49.936;11.344;2024-03-02T07:23:15;45.40;;;22.48;;
25854;SDS011;13680;49.936;11.344;2024-03-02T07:25:41;43.38;;;21.35;;
25854;SDS011;13680;49.936;11.344;2024-03-02T07:28:06;48.08;;;22.98;;
25854;SDS011;13680;49.936;11.344;2024-03-02T07:30:34;47.90;;;22.17;;
25854;SDS011;13680;49.936;11.344;2024-03-02T07:33:00;45.88;;;21.85;;
25854;SDS011;13680;49.936;11.344;2024-03-02T07:35:26;47.95;;;21.85;;
25854;SDS011;13680;49.936;11.344;2024-03-02T07:37:52;49.58;;;23.35;;
25854;SDS011;13680;49.936;11.344;2024-03-02T07:40:19;50.58;;;23.33;;
25854;SDS011;13680;49.936;11.344;2024-03-02T07:42:45;49.80;;;23.15;;
25854;SDS011;13680;49.936;11.344;2024-03-02T07:45:10;43.08;;;22.10;;
25854;SDS011;13680;49.936;11.344;2024-03-02T07:47:36;40.88;;;21.38;;
25854;SDS011;13680;49.936;11.344;2024-03-02T07:50:02;48.28;;;22.45;;
25854;SDS011;13680;49.936;11.344;2024-03-02T07:52:27;42.83;;;22.23;;
25854;SDS011;13680;49.936;11.344;2024-03-02T07:54:53;46.90;;;22.60;;
25854;SDS011;13680;49.936;11.344;2024-03-02T07:57:19;46.47;;;23.02;;
25854;SDS011;13680;49.936;11.344;2024-03-02T07:59:44;44.83;;;22.90;;
25854;SDS011;13680;49.936;11.344;2024-03-02T08:02:10;40.40;;;21.85;;
25854;SDS011;13680;49.936;11.344;2024-03-02T08:04:36;39.80;;;21.98;;
25854;SDS011;13680;49.936;11.344;2024-03-02T08:07:02;38.35;;;20.95;;
25854;SDS011;13680;49.936;11.344;2024-03-02T08:09:28;46.25;;;22.42;;
25854;SDS011;13680;49.936;11.344;2024-03-02T08:11:53;42.70;;;21.58;;
25854;SDS011;13680;49.936;11.344;2024-03-02T08:14:18;41.33;;;21.88;;
25854;SDS011;13680;49.936;11.344;2024-03-02T08:16:43;43.80;;;21.92;;
25854;SDS011;13680;49.936;11.344;2024-03-02T08:19:10;40.42;;;21.17;;
25854;SDS011;13680;49.936;11.344;2024-03-02T08:21:35;45.92;;;23.33;;
25854;SDS011;13680;49.936;11.344;2024-03-02T08:24:01;46.95;;;23.15;;
25854;SDS011;13680;49.936;11.344;2024-03-02T08:26:27;43.75;;;22.58;;
25854;SDS011;13680;49.936;11.344;2024-03-02T08:28:54;45.70;;;23.80;;
25854;SDS011;13680;49.936;11.344;2024-03-02T08:31:20;41.25;;;21.25;;
25854;SDS011;13680;49.936;11.344;2024-03-02T08:33:45;44.03;;;21.65;;
25854;SDS011;13680;49.936;11.344;2024-03-02T08:36:10;43.08;;;21.30;;
25854;SDS011;13680;49.936;11.344;2024-03-02T08:38:36;39.53;;;20.42;;
25854;SDS011;13680;49.936;11.344;2024-03-02T08:41:02;40.42;;;19.65;;
25854;SDS011;13680;49.936;11.344;2024-03-02T08:43:28;37.35;;;18.90;;
25854;SDS011;13680;49.936;11.344;2024-03-02T08:45:54;36.50;;;18.25;;
25854;SDS011;13680;49.936;11.344;2024-03-02T08:48:19;33.03;;;18.02;;
25854;SDS011;13680;49.936;11.344;2024-03-02T08:50:46;32.78;;;16.92;;
25854;SDS011;13680;49.936;11.344;2024-03-02T08:53:11;27.83;;;15.60;;
25854;SDS011;13680;49.936;11.344;2024-03-02T08:55:36;29.40;;;16.73;;
25854;SDS011;13680;49.936;11.344;2024-03-02T08:58:02;28.15;;;16.45;;
25854;SDS011;13680;49.936;11.344;2024-03-02T09:00:28;33.05;;;17.42;;
25854;SDS011;13680;49.936;11.344;2024-03-02T09:02:53;29.00;;;16.10;;
25854;SDS011;13680;49.936;11.344;2024-03-02T09:05:19;27.85;;;16.38;;
25854;SDS011;13680;49.936;11.344;2024-03-02T09:07:44;26.42;;;15.15;;
25854;SDS011;13680;49.936;11.344;2024-03-02T09:10:10;29.30;;;16.40;;
25854;SDS011;13680;49.936;11.344;2024-03-02T09:12:35;26.45;;;15.00;;
25854;SDS011;13680;49.936;11.344;2024-03-02T09:15:02;22.98;;;13.80;;
25854;SDS011;13680;49.936;11.344;2024-03-02T09:17:28;22.35;;;13.35;;
25854;SDS011;13680;49.936;11.344;2024-03-02T09:19:54;27.00;;;15.75;;
25854;SDS011;13680;49.936;11.344;2024-03-02T09:22:19;24.52;;;13.68;;
25854;SDS011;13680;49.936;11.344;2024-03-02T09:24:44;23.58;;;14.40;;
25854;SDS011;13680;49.936;11.344;2024-03-02T09:27:10;23.10;;;13.85;;
25854;SDS011;13680;49.936;11.344;2024-03-02T09:29:35;23.75;;;13.65;;
25854;SDS011;13680;49.936;11.344;2024-03-02T09:32:01;22.85;;;13.35;;
25854;SDS011;13680;49.936;11.344;2024-03-02T09:34:26;19.70;;;12.45;;
25854;SDS011;13680;49.936;11.344;2024-03-02T09:36:52;20.83;;;13.25;;
25854;SDS011;13680;49.936;11.344;2024-03-02T09:39:17;21.73;;;12.98;;
25854;SDS011;13680;49.936;11.344;2024-03-02T09:41:43;21.10;;;13.43;;
25854;SDS011;13680;49.936;11.344;2024-03-02T09:44:09;20.50;;;11.40;;
25854;SDS011;13680;49.936;11.344;2024-03-02T09:46:35;20.83;;;13.02;;
25854;SDS011;13680;49.936;11.344;2024-03-02T09:49:01;21.83;;;13.07;;
25854;SDS011;13680;49.936;11.344;2024-03-02T09:51:27;22.60;;;13.60;;
25854;SDS011;13680;49.936;11.344;2024-03-02T09:53:53;18.40;;;11.65;;
25854;SDS011;13680;49.936;11.344;2024-03-02T09:56:20;19.73;;;11.75;;
25854;SDS011;13680;49.936;11.344;2024-03-02T09:58:46;20.00;;;11.90;;
25854;SDS011;13680;49.936;11.344;2024-03-02T10:01:12;19.70;;;12.52;;
25854;SDS011;13680;49.936;11.344;2024-03-02T10:03:38;17.48;;;11.30;;
25854;SDS011;13680;49.936;11.344;2024-03-02T10:08:45;18.85;;;12.10;;
25854;SDS011;13680;49.936;11.344;2024-03-02T10:11:11;17.40;;;11.10;;
25854;SDS011;13680;49.936;11.344;2024-03-02T10:13:54;16.30;;;10.43;;
25854;SDS011;13680;49.936;11.344;2024-03-02T10:16:29;14.07;;;9.95;;
25854;SDS011;13680;49.936;11.344;2024-03-02T10:18:54;13.80;;;9.45;;
25854;SDS011;13680;49.936;11.344;2024-03-02T10:21:20;18.38;;;11.18;;
25854;SDS011;13680;49.936;11.344;2024-03-02T10:23:45;17.55;;;10.15;;
25854;SDS011;13680;49.936;11.344;2024-03-02T10:26:17;16.73;;;11.00;;
25854;SDS011;13680;49.936;11.344;2024-03-02T10:28:46;19.88;;;11.48;;
25854;SDS011;13680;49.936;11.344;2024-03-02T10:31:17;17.00;;;11.00;;
25854;SDS011;13680;49.936;11.344;2024-03-02T10:33:43;14.10;;;10.13;;
25854;SDS011;13680;49.936;11.344;2024-03-02T10:36:09;15.80;;;10.60;;
25854;SDS011;13680;49.936;11.344;2024-03-02T10:38:34;16.60;;;11.05;;
25854;SDS011;13680;49.936;11.344;2024-03-02T10:41:00;16.48;;;10.55;;
25854;SDS011;13680;49.936;11.344;2024-03-02T10:43:26;19.85;;;11.63;;
25854;SDS011;13680;49.936;11.344;2024-03-02T10:45:52;15.48;;;9.90;;
25854;SDS011;13680;49.936;11.344;2024-03-02T10:48:21;15.80;;;10.40;;
25854;SDS011;13680;49.936;11.344;2024-03-02T10:50:47;17.58;;;12.05;;
25854;SDS011;13680;49.936;11.344;2024-03-02T10:53:12;16.45;;;11.52;;
25854;SDS011;13680;49.936;11.344;2024-03-02T10:55:38;15.15;;;10.40;;
25854;SDS011;13680;49.936;11.344;2024-03-02T10:58:04;37.53;;;21.13;;
25854;SDS011;13680;49.936;11.344;2024-03-02T11:00:33;14.23;;;9.70;;
25854;SDS011;13680;49.936;11.344;2024-03-02T11:03:06;16.83;;;11.27;;
25854;SDS011;13680;49.936;11.344;2024-03-02T11:05:36;14.98;;;10.23;;
25854;SDS011;13680;49.936;11.344;2024-03-02T11:08:07;16.42;;;11.63;;
25854;SDS011;13680;49.936;11.344;2024-03-02T11:10:41;16.00;;;11.35;;
25854;SDS011;13680;49.936;11.344;2024-03-02T11:13:12;14.45;;;10.02;;
25854;SDS011;13680;49.936;11.344;2024-03-02T11:15:39;16.70;;;12.27;;
25854;SDS011;13680;49.936;11.344;2024-03-02T11:18:06;14.60;;;9.05;;
25854;SDS011;13680;49.936;11.344;2024-03-02T11:20:35;11.95;;;8.43;;
25854;SDS011;13680;49.936;11.344;2024-03-02T11:23:06;11.18;;;8.45;;
25854;SDS011;13680;49.936;11.344;2024-03-02T11:25:35;13.75;;;8.40;;
25854;SDS011;13680;49.936;11.344;2024-03-02T11:28:05;10.25;;;6.88;;
25854;SDS011;13680;49.936;11.344;2024-03-02T11:33:04;10.68;;;7.30;;
25854;SDS011;13680;49.936;11.344;2024-03-02T11:35:43;11.75;;;7.85;;
25854;SDS011;13680;49.936;11.344;2024-03-02T11:38:13;10.77;;;7.75;;
25854;SDS011;13680;49.936;11.344;2024-03-02T11:40:40;13.20;;;8.70;;
25854;SDS011;13680;49.936;11.344;2024-03-02T11:43:06;11.32;;;8.48;;
25854;SDS011;13680;49.936;11.344;2024-03-02T11:45:36;12.45;;;8.20;;
25854;SDS011;13680;49.936;11.344;2024-03-02T11:48:05;10.73;;;7.40;;
25854;SDS011;13680;49.936;11.344;2024-03-02T11:50:33;11.07;;;8.00;;
25854;SDS011;13680;49.936;11.344;2024-03-02T11:53:03;13.90;;;8.48;;
25854;SDS011;13680;49.936;11.344;2024-03-02T11:55:36;12.95;;;9.20;;
25854;SDS011;13680;49.936;11.344;2024-03-02T11:58:03;16.27;;;8.77;;
25854;SDS011;13680;49.936;11.344;2024-03-02T12:00:29;14.27;;;7.80;;
25854;SDS011;13680;49.936;11.344;2024-03-02T12:05:31;13.32;;;9.27;;
25854;SDS011;13680;49.936;11.344;2024-03-02T12:07:57;21.20;;;9.05;;
25854;SDS011;13680;49.936;11.344;2024-03-02T12:10:24;17.17;;;8.52;;
25854;SDS011;13680;49.936;11.344;2024-03-02T12:15:25;15.23;;;10.02;;
25854;SDS011;13680;49.936;11.344;2024-03-02T12:17:55;16.10;;;9.02;;
25854;SDS011;13680;49.936;11.344;2024-03-02T12:20:22;16.27;;;9.63;;
25854;SDS011;13680;49.936;11.344;2024-03-02T12:22:49;16.63;;;10.38;;
25854;SDS011;13680;49.936;11.344;2024-03-02T12:25:18;17.38;;;11.70;;
25854;SDS011;13680;49.936;11.344;2024-03-02T12:27:45;15.68;;;9.48;;
25854;SDS011;13680;49.936;11.344;2024-03-02T12:30:12;18.23;;;11.18;;
25854;SDS011;13680;49.936;11.344;2024-03-02T12:32:39;15.48;;;9.25;;
25854;SDS011;13680;49.936;11.344;2024-03-02T12:35:06;12.52;;;8.52;;
25854;SDS011;13680;49.936;11.344;2024-03-02T12:37:32;13.10;;;8.45;;
25854;SDS011;13680;49.936;11.344;2024-03-02T12:39:58;17.42;;;9.68;;
25854;SDS011;13680;49.936;11.344;2024-03-02T12:42:24;14.88;;;9.27;;
25854;SDS011;13680;49.936;11.344;2024-03-02T12:44:51;17.48;;;10.98;;
25854;SDS011;13680;49.936;11.344;2024-03-02T12:47:20;20.75;;;10.90;;
25854;SDS011;13680;49.936;11.344;2024-03-02T12:49:46;16.02;;;9.93;;
25854;SDS011;13680;49.936;11.344;2024-03-02T12:52:12;15.13;;;10.02;;
25854;SDS011;13680;49.936;11.344;2024-03-02T12:54:40;13.50;;;9.48;;
25854;SDS011;13680;49.936;11.344;2024-03-02T12:57:06;16.88;;;9.60;;
25854;SDS011;13680;49.936;11.344;2024-03-02T12:59:32;15.02;;;9.98;;
25854;SDS011;13680;49.936;11.344;2024-03-02T13:01:58;13.65;;;9.60;;
25854;SDS011;13680;49.936;11.344;2024-03-02T13:04:24;14.63;;;10.15;;
25854;SDS011;13680;49.936;11.344;2024-03-02T13:06:51;15.32;;;9.63;;
25854;SDS011;13680;49.936;11.344;2024-03-02T13:09:17;17.30;;;10.80;;
25854;SDS011;13680;49.936;11.344;2024-03-02T13:11:43;12.95;;;8.93;;
25854;SDS011;13680;49.936;11.344;2024-03-02T13:14:10;14.57;;;10.00;;
25854;SDS011;13680;49.936;11.344;2024-03-02T13:16:42;25.23;;;13.73;;
25854;SDS011;13680;49.936;11.344;2024-03-02T13:19:08;28.15;;;16.45;;
25854;SDS011;13680;49.936;11.344;2024-03-02T13:21:34;19.63;;;12.85;;
25854;SDS011;13680;49.936;11.344;2024-03-02T13:24:00;20.80;;;12.40;;
25854;SDS011;13680;49.936;11.344;2024-03-02T13:26:26;15.20;;;9.68;;
25854;SDS011;13680;49.936;11.344;2024-03-02T13:28:52;15.98;;;10.23;;
25854;SDS011;13680;49.936;11.344;2024-03-02T13:31:18;16.13;;;10.73;;
25854;SDS011;13680;49.936;11.344;2024-03-02T13:33:44;15.82;;;9.13;;
25854;SDS011;13680;49.936;11.344;2024-03-02T13:36:09;14.15;;;9.93;;
25854;SDS011;13680;49.936;11.344;2024-03-02T13:38:35;15.18;;;8.95;;
25854;SDS011;13680;49.936;11.344;2024-03-02T13:41:01;16.45;;;10.43;;
25854;SDS011;13680;49.936;11.344;2024-03-02T13:43:27;15.63;;;10.07;;
25854;SDS011;13680;49.936;11.344;2024-03-02T13:45:52;14.73;;;10.00;;
25854;SDS011;13680;49.936;11.344;2024-03-02T13:48:19;18.50;;;11.82;;
25854;SDS011;13680;49.936;11.344;2024-03-02T13:50:45;16.63;;;10.82;;
25854;SDS011;13680;49.936;11.344;2024-03-02T13:53:11;21.20;;;12.68;;
25854;SDS011;13680;49.936;11.344;2024-03-02T13:55:37;20.88;;;13.30;;
25854;SDS011;13680;49.936;11.344;2024-03-02T13:58:03;21.65;;;13.88;;
25854;SDS011;13680;49.936;11.344;2024-03-02T14:00:29;25.00;;;15.27;;
25854;SDS011;13680;49.936;11.344;2024-03-02T14:02:55;21.45;;;14.00;;
25854;SDS011;13680;49.936;11.344;2024-03-02T14:05:21;26.25;;;16.30;;
25854;SDS011;13680;49.936;11.344;2024-03-02T14:07:46;27.58;;;16.70;;
25854;SDS011;13680;49.936;11.344;2024-03-02T14:10:12;26.83;;;15.07;;
25854;SDS011;13680;49.936;11.344;2024-03-02T14:12:40;31.33;;;18.50;;
25854;SDS011;13680;49.936;11.344;2024-03-02T14:15:06;30.20;;;17.00;;
25854;SDS011;13680;49.936;11.344;2024-03-02T14:17:32;28.52;;;16.90;;
25854;SDS011;13680;49.936;11.344;2024-03-02T14:19:58;27.85;;;15.70;;
25854;SDS011;13680;49.936;11.344;2024-03-02T14:22:26;29.00;;;16.48;;